Time;durP1;ratioP1;P1;durP2;ratioP2;P2;SDS_P1;SDS_P2;PMS_P1;PMS_P2;Temp;Humidity;BMP_temperature;BMP_pressure;BME280_temperature;BME280_humidity;BME280_pressure;Samples;Min_cycle;Max_cycle;Signal;HPM_P1;HPM_P2
2022/08/16 00:02:20;;;;;;;0.83;0.83;;;;;;;19.95;94.41;99493.50;4971944;28;20269;-74
2022/08/16 00:04:46;;;;;;;0.77;0.77;;;;;;;19.83;97.37;99493.94;4971894;28;20257;-75
2022/08/16 00:07:11;;;;;;;3.20;1.50;;;;;;;19.66;99.20;99486.41;4972005;28;20684;-73
2022/08/16 00:09:36;;;;;;;3.50;3.00;;;;;;;19.48;100.00;99489.13;4978106;28;20178;-72
2022/08/16 00:12:03;;;;;;;1.97;1.87;;;;;;;19.68;97.88;99489.59;4975110;28;20178;-72
2022/08/16 00:14:31;;;;;;;2.47;2.33;;;;;;;19.76;96.87;99486.41;4972354;28;20664;-72
2022/08/16 00:16:58;;;;;;;1.27;1.17;;;;;;;19.75;96.83;99487.59;4972245;28;20170;-72
2022/08/16 00:19:31;;;;;;;0.93;0.83;;;;;;;19.79;95.94;99490.34;4972217;28;20181;-73
2022/08/16 00:21:57;;;;;;;2.07;1.97;;;;;;;19.77;96.11;99499.06;4972296;28;20178;-72
2022/08/16 00:24:25;;;;;;;2.57;2.40;;;;;;;19.82;95.28;99495.91;4972233;28;20174;-72
2022/08/16 00:26:51;;;;;;;0.80;0.80;;;;;;;19.87;94.60;99497.50;4971684;28;20206;-72
2022/08/16 00:29:17;;;;;;;4.37;4.07;;;;;;;19.85;95.19;99502.66;4971679;28;20182;-72
2022/08/16 00:31:48;;;;;;;1.40;1.33;;;;;;;19.99;93.64;99504.63;4971838;28;20179;-72
2022/08/16 00:34:14;;;;;;;2.67;2.20;;;;;;;20.00;93.89;99498.66;4971688;28;20182;-73
2022/08/16 00:36:40;;;;;;;2.67;1.67;;;;;;;20.03;92.80;99502.63;4971360;28;20265;-72
2022/08/16 00:39:06;;;;;;;2.53;2.03;;;;;;;20.09;91.91;99501.81;4971487;28;20261;-72
2022/08/16 00:41:33;;;;;;;2.37;2.27;;;;;;;20.10;91.75;99506.16;4971535;28;20245;-76
2022/08/16 00:44:01;;;;;;;1.73;1.63;;;;;;;20.14;91.15;99508.94;4971573;28;20549;-77
2022/08/16 00:46:35;;;;;;;2.60;2.40;;;;;;;20.24;90.32;99515.66;4971264;28;20194;-76
2022/08/16 00:49:06;;;;;;;9.80;2.83;;;;;;;20.15;91.30;99510.53;4971049;28;20185;-76
2022/08/16 00:51:31;;;;;;;2.07;1.93;;;;;;;20.07;91.94;99506.16;4971304;28;20317;-76
2022/08/16 00:53:58;;;;;;;1.80;1.70;;;;;;;20.04;91.66;99507.75;4971436;28;20261;-76
2022/08/16 00:56:29;;;;;;;2.83;2.63;;;;;;;20.03;91.77;99503.41;4971278;28;20808;-76
2022/08/16 00:58:55;;;;;;;1.87;1.73;;;;;;;20.10;91.10;99502.59;4983311;28;20232;-76
2022/08/16 01:01:20;;;;;;;0.97;0.97;;;;;;;20.06;91.76;99510.13;4990759;28;20260;-76
2022/08/16 01:03:50;;;;;;;3.97;3.60;;;;;;;20.06;91.46;99513.69;4992528;28;20180;-77
2022/08/16 01:06:17;;;;;;;3.07;2.87;;;;;;;20.12;90.60;99516.88;4994383;28;20197;-75
2022/08/16 01:08:46;;;;;;;4.20;3.30;;;;;;;20.09;90.70;99510.13;4994066;28;20277;-76
2022/08/16 01:11:12;;;;;;;1.57;1.23;;;;;;;20.12;90.20;99501.03;4994478;28;20208;-76
2022/08/16 01:13:39;;;;;;;1.53;1.43;;;;;;;20.11;90.44;99512.53;4993005;28;20608;-76
2022/08/16 01:16:09;;;;;;;3.93;3.33;;;;;;;20.13;90.43;99518.47;4994084;28;20193;-73
2022/08/16 01:18:49;;;;;;;3.40;3.20;;;;;;;20.08;90.80;99516.88;4993647;28;20258;-73
2022/08/16 01:21:25;;;;;;;2.87;2.67;;;;;;;20.04;90.50;99515.28;4994227;28;20731;-73
2022/08/16 01:24:02;;;;;;;2.03;1.87;;;;;;;20.03;90.95;99513.72;4992824;28;20181;-73
2022/08/16 01:26:30;;;;;;;7.63;1.97;;;;;;;19.96;91.20;99522.03;4993961;28;20671;-74
2022/08/16 01:29:01;;;;;;;4.67;2.47;;;;;;;19.98;90.89;99523.22;4993218;28;20215;-73
2022/08/16 01:31:27;;;;;;;1.80;1.70;;;;;;;19.98;90.74;99522.44;4994017;28;20235;-73
2022/08/16 01:33:52;;;;;;;1.50;1.50;;;;;;;19.92;91.00;99513.72;4994036;28;20181;-73
2022/08/16 01:36:17;;;;;;;8.20;3.17;;;;;;;19.91;90.97;99514.91;4992353;28;20192;-73
2022/08/16 01:38:48;;;;;;;20.33;5.23;;;;;;;19.90;91.05;99514.13;4993497;28;20270;-73
2022/08/16 01:41:19;;;;;;;2.33;2.23;;;;;;;19.87;90.95;99519.66;4993869;28;20173;-73
2022/08/16 01:43:46;;;;;;;1.60;1.50;;;;;;;19.79;91.97;99523.63;4993719;28;20188;-74
2022/08/16 01:46:27;;;;;;;10.03;2.27;;;;;;;19.75;91.79;99523.63;4993536;28;20201;-73
2022/08/16 01:48:58;;;;;;;0.87;0.87;;;;;;;19.78;91.31;99527.59;4992746;28;20621;-76
2022/08/16 01:51:26;;;;;;;2.07;1.97;;;;;;;19.74;91.64;99532.34;4993848;28;20181;-76
2022/08/16 01:53:52;;;;;;;0.67;0.60;;;;;;;19.71;91.83;99527.59;4993963;28;20178;-76
2022/08/16 01:56:18;;;;;;;12.33;3.13;;;;;;;19.65;92.02;99529.16;4993392;28;20192;-76
2022/08/16 01:58:43;;;;;;;0.73;0.73;;;;;;;19.65;92.19;99531.94;4991524;28;20181;-76
2022/08/16 02:01:08;;;;;;;0.70;0.70;;;;;;;19.59;92.59;99531.53;4993363;28;20236;-77
2022/08/16 02:03:34;;;;;;;0.77;0.77;;;;;;;19.56;92.62;99535.09;4992178;28;20189;-76
2022/08/16 02:05:59;;;;;;;2.23;2.13;;;;;;;19.54;92.56;99540.22;4993119;28;20204;-76
2022/08/16 02:08:25;;;;;;;1.30;1.20;;;;;;;19.52;92.82;99531.47;4992930;28;20177;-76
2022/08/16 02:10:51;;;;;;;1.30;1.20;;;;;;;19.52;92.54;99537.03;4993496;28;20173;-76
2022/08/16 02:13:17;;;;;;;1.47;1.43;;;;;;;19.48;93.04;99531.50;4993316;28;20177;-76
2022/08/16 02:15:43;;;;;;;0.60;0.60;;;;;;;19.47;92.89;99529.13;4990957;28;20177;-76
2022/08/16 02:18:09;;;;;;;1.50;1.40;;;;;;;19.41;93.00;99525.94;4993123;28;20479;-77
2022/08/16 02:20:37;;;;;;;1.47;1.37;;;;;;;19.46;92.54;99533.88;4992891;28;20185;-76
2022/08/16 02:23:04;;;;;;;1.10;1.03;;;;;;;19.42;93.25;99532.28;4993089;28;20177;-75
2022/08/16 02:25:29;;;;;;;1.80;1.70;;;;;;;19.28;94.79;99538.59;4993021;28;20208;-76
2022/08/16 02:27:55;;;;;;;0.87;0.87;;;;;;;19.27;94.27;99531.47;4992694;28;20248;-77
2022/08/16 02:30:24;;;;;;;1.67;1.57;;;;;;;19.22;95.09;99529.84;4992501;28;20208;-74
2022/08/16 02:32:50;;;;;;;2.17;1.97;;;;;;;19.25;94.44;99534.63;4992816;28;20185;-73
2022/08/16 02:35:16;;;;;;;0.87;0.87;;;;;;;19.29;93.76;99537.41;4992963;28;20182;-76
2022/08/16 02:37:41;;;;;;;0.73;0.73;;;;;;;19.24;94.60;99540.53;4992581;28;20181;-76
2022/08/16 02:40:09;;;;;;;0.93;0.93;;;;;;;19.15;95.88;99542.91;4991092;28;20301;-76
2022/08/16 02:42:35;;;;;;;1.03;0.40;;;;;;;19.03;97.08;99533.75;4992692;28;20224;-76
2022/08/16 02:45:00;;;;;;;0.00;0.00;;;;;;;18.96;98.41;99538.50;4992624;28;20667;-76
2022/08/16 02:47:26;;;;;;;4.50;1.27;;;;;;;18.86;99.64;99536.47;4992310;28;20308;-77
2022/08/16 02:49:51;;;;;;;0.43;0.43;;;;;;;18.75;100.00;99538.38;4992180;28;20625;-76
2022/08/16 02:52:17;;;;;;;0.00;0.00;;;;;;;18.55;100.00;99535.91;4992619;28;20307;-74
2022/08/16 02:54:42;;;;;;;0.30;0.27;;;;;;;18.46;100.00;99532.69;4992469;28;20184;-73
2022/08/16 02:57:08;;;;;;;0.87;0.87;;;;;;;18.45;100.00;99533.88;4986171;28;20660;-73
2022/08/16 02:59:33;;;;;;;0.00;0.00;;;;;;;18.40;100.00;99534.25;4991710;28;20660;-73
2022/08/16 03:01:58;;;;;;;0.37;0.37;;;;;;;18.37;100.00;99537.75;4990857;28;20177;-74
2022/08/16 03:04:24;;;;;;;0.90;0.90;;;;;;;18.32;100.00;99532.59;4992155;28;20185;-73
2022/08/16 03:06:50;;;;;;;1.63;1.53;;;;;;;18.37;100.00;99540.53;4991643;28;20213;-73
2022/08/16 03:09:17;;;;;;;0.00;0.00;;;;;;;18.52;100.00;99542.22;4991789;28;20177;-74
2022/08/16 03:11:43;;;;;;;0.10;0.10;;;;;;;18.55;100.00;99533.13;4992229;28;20657;-74
2022/08/16 03:14:09;;;;;;;1.53;1.43;;;;;;;18.62;100.00;99544.22;4992056;28;20173;-74
2022/08/16 03:16:35;;;;;;;0.10;0.10;;;;;;;18.71;98.79;99541.94;4991832;28;20922;-74
2022/08/16 03:19:00;;;;;;;0.70;0.70;;;;;;;18.78;98.57;99546.69;4991452;28;20177;-74
2022/08/16 03:21:27;;;;;;;0.47;0.47;;;;;;;18.66;99.61;99544.28;4992055;28;20181;-73
2022/08/16 03:23:52;;;;;;;0.30;0.30;;;;;;;18.57;100.00;99543.81;4991795;28;20200;-72
2022/08/16 03:26:18;;;;;;;0.63;0.63;;;;;;;18.42;100.00;99537.41;4991432;28;20664;-73
2022/08/16 03:28:43;;;;;;;1.17;1.17;;;;;;;18.33;100.00;99546.03;4991175;28;20256;-74
2022/08/16 03:31:09;;;;;;;0.60;0.60;;;;;;;18.41;100.00;99536.63;4991928;28;20733;-73
2022/08/16 03:33:34;;;;;;;0.40;0.40;;;;;;;18.46;100.00;99545.72;4991735;28;20624;-73
2022/08/16 03:36:00;;;;;;;0.93;0.93;;;;;;;18.48;100.00;99538.63;4991507;28;20173;-74
2022/08/16 03:38:27;;;;;;;0.87;0.87;;;;;;;18.62;98.00;99546.19;4990873;28;20181;-73
2022/08/16 03:40:55;;;;;;;1.07;1.07;;;;;;;18.65;97.49;99546.25;4990613;28;20535;-73
2022/08/16 03:43:20;;;;;;;0.23;0.23;;;;;;;18.65;97.57;99545.44;4991786;28;20640;-73
2022/08/16 03:45:46;;;;;;;0.47;0.47;;;;;;;18.66;97.72;99541.50;4991394;28;20462;-74
2022/08/16 03:48:11;;;;;;;0.70;0.50;;;;;;;18.64;98.01;99543.88;4991249;28;20223;-74
2022/08/16 03:50:37;;;;;;;1.47;1.03;;;;;;;18.54;98.98;99539.06;4990926;28;20211;-73
2022/08/16 03:53:04;;;;;;;0.33;0.33;;;;;;;18.57;98.22;99538.28;4991402;28;20272;-73
2022/08/16 03:55:30;;;;;;;0.53;0.53;;;;;;;18.50;99.08;99543.75;4991241;28;20264;-74
2022/08/16 03:57:55;;;;;;;0.00;0.00;;;;;;;18.46;99.21;99542.94;4989533;28;20605;-73
2022/08/16 04:00:25;;;;;;;0.53;0.53;;;;;;;18.43;99.86;99539.00;4990898;28;20687;-73
2022/08/16 04:02:52;;;;;;;1.07;0.67;;;;;;;18.42;99.67;99543.72;4991154;28;20649;-74
2022/08/16 04:05:18;;;;;;;0.30;0.30;;;;;;;18.36;100.00;99544.47;4991509;28;20679;-73
2022/08/16 04:07:44;;;;;;;1.20;1.20;;;;;;;18.33;100.00;99548.81;4991031;28;20558;-74
2022/08/16 04:10:10;;;;;;;0.80;0.80;;;;;;;18.42;98.70;99546.50;4990729;28;20204;-74
2022/08/16 04:12:37;;;;;;;0.10;0.10;;;;;;;18.54;97.50;99550.13;4991272;28;20599;-73
2022/08/16 04:15:05;;;;;;;13.17;1.73;;;;;;;18.53;97.74;99546.56;4991369;28;20260;-74
2022/08/16 04:17:31;;;;;;;2.43;1.33;;;;;;;18.59;96.83;99549.75;4990710;28;20201;-74
2022/08/16 04:19:57;;;;;;;2.97;1.57;;;;;;;18.78;94.81;99545.91;4990592;28;20751;-73
2022/08/16 04:22:22;;;;;;;0.87;0.87;;;;;;;18.87;93.77;99558.22;4991050;28;20204;-74
2022/08/16 04:24:48;;;;;;;1.17;1.10;;;;;;;18.93;93.40;99555.84;4990993;28;20468;-73
2022/08/16 04:27:13;;;;;;;1.30;1.13;;;;;;;18.94;93.19;99558.22;4990642;28;20305;-74
2022/08/16 04:29:39;;;;;;;0.57;0.37;;;;;;;18.96;93.03;99560.63;4990548;28;20179;-73
2022/08/16 04:32:05;;;;;;;1.43;1.33;;;;;;;18.92;93.16;99554.28;4990924;28;20204;-73
2022/08/16 04:34:33;;;;;;;0.83;0.83;;;;;;;18.88;93.64;99556.25;4990797;28;20550;-74
2022/08/16 04:36:59;;;;;;;0.50;0.40;;;;;;;18.91;92.75;99561.00;4990782;28;20544;-74
2022/08/16 04:39:25;;;;;;;0.27;0.17;;;;;;;18.96;92.71;99566.97;4993617;28;20205;-73
2022/08/16 04:41:51;;;;;;;0.10;0.10;;;;;;;18.97;92.51;99565.78;4993677;28;20173;-74
2022/08/16 04:44:17;;;;;;;0.20;0.20;;;;;;;18.96;92.84;99566.97;4994902;28;20173;-73
2022/08/16 04:46:42;;;;;;;0.97;0.97;;;;;;;18.99;91.92;99562.63;4994236;28;20281;-74
2022/08/16 04:49:08;;;;;;;1.00;1.00;;;;;;;19.01;92.16;99561.03;4994287;28;20636;-73
2022/08/16 04:51:34;;;;;;;0.00;0.00;;;;;;;18.99;91.85;99562.63;4994683;28;20181;-74
2022/08/16 04:53:59;;;;;;;1.33;1.33;;;;;;;19.01;91.52;99563.03;4995070;28;20180;-74
2022/08/16 04:56:25;;;;;;;8.70;1.30;;;;;;;19.02;91.61;99561.84;4994568;28;20177;-73
2022/08/16 04:58:50;;;;;;;0.30;0.30;;;;;;;19.05;91.07;99563.81;4992400;28;20276;-74
2022/08/16 05:01:16;;;;;;;0.00;0.00;;;;;;;19.06;90.64;99573.72;4994622;28;20424;-74
2022/08/16 05:03:42;;;;;;;0.47;0.47;;;;;;;19.12;90.86;99574.94;4994595;28;20437;-73
2022/08/16 05:06:08;;;;;;;1.23;1.20;;;;;;;19.10;91.39;99573.75;4992937;28;20185;-74
2022/08/16 05:08:34;;;;;;;0.80;0.70;;;;;;;19.14;90.92;99583.66;4993956;28;20181;-73
2022/08/16 05:11:03;;;;;;;6.43;1.10;;;;;;;19.19;90.40;99576.91;4993209;28;20647;-74
2022/08/16 05:13:28;;;;;;;0.30;0.30;;;;;;;19.26;89.98;99579.72;4994288;28;20265;-73
2022/08/16 05:15:53;;;;;;;0.00;0.00;;;;;;;19.33;89.93;99585.28;4994248;28;20260;-74
2022/08/16 05:18:19;;;;;;;0.00;0.00;;;;;;;19.34;90.32;99584.09;4993804;28;20264;-74
2022/08/16 05:20:44;;;;;;;0.00;0.00;;;;;;;19.38;89.97;99587.66;4994097;28;20502;-74
2022/08/16 05:23:09;;;;;;;0.00;0.00;;;;;;;19.44;89.34;99591.66;4994299;28;20706;-73
2022/08/16 05:25:35;;;;;;;0.23;0.23;;;;;;;19.41;90.39;99592.44;4992760;28;20507;-74
2022/08/16 05:28:00;;;;;;;0.00;0.00;;;;;;;19.26;94.61;99602.69;4993607;28;20197;-74
2022/08/16 05:30:26;;;;;;;0.00;0.00;;;;;;;19.09;96.14;99597.84;4993574;28;20187;-75
2022/08/16 05:32:51;;;;;;;0.07;0.07;;;;;;;19.12;97.06;99605.41;4994100;28;20232;-74
2022/08/16 05:35:18;;;;;;;0.00;0.00;;;;;;;19.19;96.98;99607.38;4993703;28;20664;-74
2022/08/16 05:37:43;;;;;;;0.00;0.00;;;;;;;19.22;96.79;99610.16;4993784;28;20264;-74
2022/08/16 05:40:10;;;;;;;0.00;0.00;;;;;;;19.29;96.59;99607.44;4993552;28;20696;-74
2022/08/16 05:42:36;;;;;;;0.00;0.00;;;;;;;19.40;96.84;99610.25;4993831;28;20177;-74
2022/08/16 05:45:03;;;;;;;0.00;0.00;;;;;;;19.47;96.18;99601.94;4993812;28;20592;-74
2022/08/16 05:47:28;;;;;;;0.00;0.00;;;;;;;19.60;96.53;99613.47;4993421;28;20213;-74
2022/08/16 05:49:53;;;;;;;0.00;0.00;;;;;;;19.78;95.69;99619.06;4993347;28;20177;-78
2022/08/16 05:52:19;;;;;;;0.00;0.00;;;;;;;19.90;92.98;99630.56;4993574;28;20170;-74
2022/08/16 05:54:44;;;;;;;0.00;0.00;;;;;;;20.02;92.41;99625.81;4993668;28;20662;-74
2022/08/16 05:57:10;;;;;;;0.00;0.00;;;;;;;20.09;91.07;99626.59;4992274;28;20234;-74
2022/08/16 05:59:36;;;;;;;0.00;0.00;;;;;;;20.19;90.39;99625.81;4993093;28;20196;-73
2022/08/16 06:02:03;;;;;;;0.00;0.00;;;;;;;20.27;90.08;99628.63;4993765;28;20182;-75
2022/08/16 06:04:28;;;;;;;0.00;0.00;;;;;;;20.32;90.54;99625.44;4993457;28;20179;-74
2022/08/16 06:06:53;;;;;;;0.00;0.00;;;;;;;20.40;91.80;99627.81;4993040;28;20223;-74
2022/08/16 06:09:19;;;;;;;0.00;0.00;;;;;;;20.33;92.64;99627.00;4992971;28;20217;-74
2022/08/16 06:11:44;;;;;;;0.00;0.00;;;;;;;20.32;93.11;99637.31;4993582;28;20794;-75
2022/08/16 06:14:11;;;;;;;0.00;0.00;;;;;;;20.44;91.58;99631.41;4993600;28;20256;-75
2022/08/16 06:16:36;;;;;;;0.00;0.00;;;;;;;20.47;91.06;99635.34;4992992;28;20310;-74
2022/08/16 06:19:02;;;;;;;0.30;0.30;;;;;;;20.44;90.87;99644.50;4992984;28;20348;-74
2022/08/16 06:21:28;;;;;;;0.00;0.00;;;;;;;20.54;89.35;99646.44;4993211;28;20261;-74
2022/08/16 06:23:53;;;;;;;0.00;0.00;;;;;;;20.60;89.82;99642.09;4993286;28;20177;-74
2022/08/16 06:26:19;;;;;;;0.00;0.00;;;;;;;20.58;89.91;99641.69;4994418;28;20185;-74
2022/08/16 06:28:44;;;;;;;0.00;0.00;;;;;;;20.40;88.71;99644.47;4992234;28;20220;-73
2022/08/16 06:31:11;;;;;;;0.00;0.00;;;;;;;20.50;88.80;99651.22;4992236;28;20312;-73
2022/08/16 06:33:37;;;;;;;0.00;0.00;;;;;;;20.63;88.59;99652.38;4993129;28;20717;-74
2022/08/16 06:36:02;;;;;;;0.00;0.00;;;;;;;20.67;89.26;99664.28;4993575;28;20278;-73
2022/08/16 06:38:28;;;;;;;0.07;0.07;;;;;;;20.60;89.41;99655.19;4992470;28;20184;-74
2022/08/16 06:40:54;;;;;;;0.00;0.00;;;;;;;20.70;89.52;99665.47;4993092;28;20178;-73
2022/08/16 06:43:20;;;;;;;0.00;0.00;;;;;;;20.76;89.63;99663.88;4989944;28;20186;-73
2022/08/16 06:45:46;;;;;;;0.00;0.00;;;;;;;20.85;89.67;99666.25;4992403;28;20187;-73
2022/08/16 06:48:11;;;;;;;0.00;0.00;;;;;;;20.82;89.37;99655.91;4992329;28;20220;-73
2022/08/16 06:50:37;;;;;;;0.00;0.00;;;;;;;20.88;88.82;99669.00;4990334;28;20194;-73
2022/08/16 06:53:03;;;;;;;0.90;0.90;;;;;;;21.04;83.88;99665.78;4992769;28;20214;-72
2022/08/16 06:55:29;;;;;;;0.00;0.00;;;;;;;21.12;82.87;99675.72;4992861;28;20177;-74
2022/08/16 06:57:55;;;;;;;0.00;0.00;;;;;;;21.16;81.10;99676.47;4992177;28;20187;-74
2022/08/16 07:00:23;;;;;;;0.50;0.50;;;;;;;21.24;80.72;99680.81;4992289;28;20197;-72
2022/08/16 07:02:48;;;;;;;1.33;1.07;;;;;;;21.30;79.05;99681.22;4992616;28;20182;-72
2022/08/16 07:05:15;;;;;;;0.23;0.23;;;;;;;21.33;80.09;99683.19;4992724;28;20186;-72
2022/08/16 07:07:44;;;;;;;0.80;0.80;;;;;;;21.31;79.73;99685.59;4992367;28;20217;-72
2022/08/16 07:10:09;;;;;;;0.70;0.70;;;;;;;21.24;79.26;99677.22;4991195;28;20178;-72
2022/08/16 07:12:35;;;;;;;0.57;0.57;;;;;;;21.19;79.71;99680.44;4992707;28;20265;-72
2022/08/16 07:15:01;;;;;;;0.53;0.47;;;;;;;21.12;80.56;99681.25;4992639;28;20192;-72
2022/08/16 07:17:26;;;;;;;1.37;1.27;;;;;;;21.08;80.60;99686.81;4992300;28;20185;-71
2022/08/16 07:19:53;;;;;;;0.47;0.47;;;;;;;21.12;80.00;99691.56;4992067;28;20189;-72
2022/08/16 07:22:19;;;;;;;0.07;0.07;;;;;;;21.13;79.21;99685.63;4992401;28;20633;-71
2022/08/16 07:24:45;;;;;;;0.77;0.40;;;;;;;21.23;81.38;99692.31;4989583;28;20197;-72
2022/08/16 07:27:11;;;;;;;1.03;1.03;;;;;;;21.35;79.93;99701.03;4991966;28;20208;-71
2022/08/16 07:29:37;;;;;;;1.20;1.10;;;;;;;21.52;78.82;99693.03;4990698;28;20180;-73
2022/08/16 07:32:04;;;;;;;0.93;0.90;;;;;;;21.61;78.27;99702.53;4992494;28;20256;-72
2022/08/16 07:34:30;;;;;;;0.73;0.47;;;;;;;21.68;78.39;99696.94;4992441;28;20188;-73
2022/08/16 07:36:58;;;;;;;0.37;0.37;;;;;;;21.77;78.37;99699.28;4992029;28;20186;-73
2022/08/16 07:39:24;;;;;;;0.53;0.47;;;;;;;21.83;77.39;99692.09;4991839;28;20181;-73
2022/08/16 07:41:49;;;;;;;0.73;0.73;;;;;;;21.94;76.80;99701.16;4992164;28;20175;-73
2022/08/16 07:44:14;;;;;;;0.00;0.00;;;;;;;22.02;76.94;99699.16;4992115;28;20266;-72
2022/08/16 07:46:40;;;;;;;0.63;0.63;;;;;;;22.11;76.82;99698.69;4991663;28;20217;-72
2022/08/16 07:49:05;;;;;;;0.40;0.40;;;;;;;22.13;77.40;99696.28;4991123;28;20217;-73
2022/08/16 07:51:33;;;;;;;0.60;0.60;;;;;;;22.11;76.59;99695.91;4991750;28;20253;-73
2022/08/16 07:54:01;;;;;;;0.77;0.77;;;;;;;22.05;77.04;99709.47;4991756;28;20200;-72
2022/08/16 07:56:27;;;;;;;0.00;0.00;;;;;;;22.03;76.67;99713.84;4990450;28;20617;-73
2022/08/16 07:58:53;;;;;;;1.70;1.43;;;;;;;22.03;76.87;99708.28;4990364;28;20188;-72
2022/08/16 08:01:18;;;;;;;0.50;0.50;;;;;;;21.99;76.46;99708.31;4991460;28;20181;-72
2022/08/16 08:03:44;;;;;;;0.30;0.30;;;;;;;21.96;75.81;99709.88;4991601;28;20181;-72
2022/08/16 08:06:09;;;;;;;0.10;0.10;;;;;;;21.99;76.37;99708.31;4991477;28;20181;-73
2022/08/16 08:08:35;;;;;;;7.63;1.90;;;;;;;21.96;76.76;99695.19;4991367;28;20176;-74
2022/08/16 08:11:01;;;;;;;0.30;0.30;;;;;;;22.01;77.36;99703.13;4991241;28;20270;-74
2022/08/16 08:13:28;;;;;;;2.10;0.83;;;;;;;22.12;76.61;99698.28;4990772;28;20183;-73
2022/08/16 08:15:54;;;;;;;0.00;0.00;;;;;;;22.24;75.33;99703.38;4991363;28;20174;-73
2022/08/16 08:18:19;;;;;;;0.00;0.00;;;;;;;22.37;74.39;99703.69;4991065;28;21146;-73
2022/08/16 08:20:44;;;;;;;0.33;0.33;;;;;;;22.53;73.81;99701.16;4990917;28;20204;-75
2022/08/16 08:23:12;;;;;;;0.57;0.57;;;;;;;22.67;74.32;99702.25;4991464;28;20180;-72
2022/08/16 08:25:39;;;;;;;0.90;0.90;;;;;;;22.78;74.04;99712.09;4991124;28;20264;-73
2022/08/16 08:28:05;;;;;;;0.67;0.67;;;;;;;22.92;71.94;99707.63;4991064;28;20214;-73
2022/08/16 08:30:31;;;;;;;0.40;0.40;;;;;;;23.01;72.10;99708.72;4990716;28;20184;-73
2022/08/16 08:32:57;;;;;;;0.30;0.30;;;;;;;23.08;70.68;99713.44;4991187;28;20545;-73
2022/08/16 08:35:22;;;;;;;0.10;0.10;;;;;;;23.17;71.72;99710.94;4989435;28;20181;-73
2022/08/16 08:37:48;;;;;;;0.63;0.30;;;;;;;23.20;70.55;99721.25;4977843;28;20192;-73
2022/08/16 08:40:13;;;;;;;3.40;1.67;;;;;;;23.29;70.40;99717.97;4986216;28;20185;-73
2022/08/16 08:42:42;;;;;;;0.27;0.27;;;;;;;23.37;69.54;99709.13;4989900;28;20193;-73
2022/08/16 08:45:09;;;;;;;0.40;0.40;;;;;;;23.44;69.36;99711.84;4985925;28;20329;-73
2022/08/16 08:47:35;;;;;;;0.00;0.00;;;;;;;23.48;69.17;99714.56;4986901;28;20648;-73
2022/08/16 08:50:00;;;;;;;1.30;1.30;;;;;;;23.60;70.19;99716.84;4987543;28;20675;-73
2022/08/16 08:52:26;;;;;;;0.53;0.53;;;;;;;23.57;69.92;99720.44;4990745;28;20223;-73
2022/08/16 08:54:52;;;;;;;0.00;0.00;;;;;;;23.50;69.75;99716.94;4990772;28;20208;-74
2022/08/16 08:57:17;;;;;;;4.40;1.23;;;;;;;23.51;69.98;99713.72;4988970;28;20235;-73
2022/08/16 08:59:44;;;;;;;0.00;0.00;;;;;;;23.55;69.64;99716.47;4985435;28;20292;-73
2022/08/16 09:02:10;;;;;;;0.00;0.00;;;;;;;23.71;69.93;99723.06;4990609;28;20189;-73
2022/08/16 09:04:36;;;;;;;0.30;0.30;;;;;;;23.86;69.63;99717.28;4990656;28;20209;-73
2022/08/16 09:07:02;;;;;;;1.60;1.20;;;;;;;24.00;68.54;99717.09;4988474;28;20243;-73
2022/08/16 09:09:28;;;;;;;0.30;0.30;;;;;;;24.01;67.07;99711.13;4990134;28;20193;-73
2022/08/16 09:11:56;;;;;;;0.00;0.00;;;;;;;24.10;66.28;99720.97;4988459;28;20687;-74
2022/08/16 09:14:22;;;;;;;0.23;0.23;;;;;;;24.21;66.67;99721.59;4990647;28;20260;-73
2022/08/16 09:16:48;;;;;;;0.20;0.20;;;;;;;24.26;66.05;99730.28;4990375;28;20181;-74
2022/08/16 09:19:13;;;;;;;0.10;0.10;;;;;;;24.19;64.54;99724.03;4989324;28;20177;-73
2022/08/16 09:21:39;;;;;;;1.37;1.27;;;;;;;24.16;64.90;99731.25;4983072;28;20235;-73
2022/08/16 09:24:05;;;;;;;0.10;0.10;;;;;;;24.15;66.29;99731.63;4991061;28;20243;-73
2022/08/16 09:26:30;;;;;;;0.30;0.10;;;;;;;24.28;65.14;99732.66;4994061;28;20291;-73
2022/08/16 09:28:56;;;;;;;0.40;0.40;;;;;;;24.46;65.74;99721.25;4992689;28;20652;-74
2022/08/16 09:31:23;;;;;;;1.57;1.27;;;;;;;24.62;65.31;99727.75;4994097;28;20713;-73
2022/08/16 09:33:49;;;;;;;4.77;0.90;;;;;;;24.69;63.16;99721.25;4989558;28;20205;-73
2022/08/16 09:36:15;;;;;;;0.53;0.53;;;;;;;24.81;64.34;99731.03;4989281;28;20327;-73
2022/08/16 09:38:41;;;;;;;0.13;0.13;;;;;;;24.81;62.45;99728.22;4991861;28;20173;-73
2022/08/16 09:41:09;;;;;;;3.40;1.23;;;;;;;24.83;63.01;99731.38;4992633;28;20181;-73
2022/08/16 09:43:35;;;;;;;2.03;1.83;;;;;;;24.76;62.23;99720.34;4993946;28;20211;-73
2022/08/16 09:46:02;;;;;;;0.30;0.30;;;;;;;24.78;63.97;99724.28;4993894;28;20169;-73
2022/08/16 09:48:31;;;;;;;0.93;0.93;;;;;;;25.00;63.63;99729.50;4992815;28;20676;-73
2022/08/16 09:50:56;;;;;;;1.10;0.97;;;;;;;25.06;60.84;99730.63;4993998;28;20629;-73
2022/08/16 09:53:22;;;;;;;0.37;0.37;;;;;;;25.01;61.83;99731.09;4993944;28;20227;-73
2022/08/16 09:55:51;;;;;;;1.20;1.10;;;;;;;24.95;61.31;99725.19;4993570;28;20180;-73
2022/08/16 09:58:22;;;;;;;0.00;0.00;;;;;;;24.91;60.84;99725.25;4993331;28;20181;-73
2022/08/16 10:00:49;;;;;;;2.10;2.00;;;;;;;25.05;61.62;99726.25;4993128;28;20184;-73
2022/08/16 10:03:15;;;;;;;0.53;0.53;;;;;;;25.08;60.30;99728.97;4993606;28;20201;-73
2022/08/16 10:05:41;;;;;;;0.03;0.03;;;;;;;25.15;60.18;99726.03;4993514;28;20256;-74
2022/08/16 10:08:07;;;;;;;0.73;0.73;;;;;;;25.32;62.67;99726.94;4992995;28;20300;-73
2022/08/16 10:10:33;;;;;;;1.03;1.03;;;;;;;25.50;61.38;99729.38;4993164;28;20284;-73
2022/08/16 10:13:12;;;;;;;1.00;0.93;;;;;;;25.44;59.56;99725.47;4993529;28;20173;-74
2022/08/16 10:15:42;;;;;;;0.20;0.20;;;;;;;25.49;61.11;99731.38;4993522;28;20181;-74
2022/08/16 10:18:11;;;;;;;1.13;0.97;;;;;;;25.52;57.96;99729.72;4989624;28;20196;-74
2022/08/16 10:20:42;;;;;;;0.00;0.00;;;;;;;25.60;58.11;99733.16;4992412;28;20265;-74
2022/08/16 10:23:13;;;;;;;1.17;1.17;;;;;;;25.79;59.21;99722.00;4991426;28;20204;-74
2022/08/16 10:25:40;;;;;;;1.57;1.47;;;;;;;25.77;58.52;99730.03;4992821;28;20189;-74
2022/08/16 10:28:06;;;;;;;0.10;0.10;;;;;;;25.73;57.62;99723.69;4992694;28;20213;-74
2022/08/16 10:30:32;;;;;;;1.43;1.27;;;;;;;25.91;58.27;99723.34;4992625;28;20174;-74
2022/08/16 10:32:57;;;;;;;1.20;1.13;;;;;;;25.92;56.76;99724.91;4993666;28;20736;-74
2022/08/16 10:35:24;;;;;;;2.97;1.70;;;;;;;25.84;56.44;99722.69;4992469;28;20185;-74
2022/08/16 10:37:50;;;;;;;1.73;1.30;;;;;;;25.82;57.02;99728.72;4992327;28;20188;-74
2022/08/16 10:40:16;;;;;;;0.50;0.50;;;;;;;25.99;57.19;99727.53;4992179;28;20629;-74
2022/08/16 10:42:41;;;;;;;1.50;1.37;;;;;;;26.01;56.89;99729.91;4993054;28;20173;-75
2022/08/16 10:45:07;;;;;;;1.20;1.10;;;;;;;25.99;57.44;99732.34;4993239;28;20645;-75
2022/08/16 10:47:33;;;;;;;1.40;1.40;;;;;;;26.01;57.92;99729.91;4995518;28;20213;-76
2022/08/16 10:49:59;;;;;;;0.00;0.00;;;;;;;26.05;56.51;99728.63;4994442;28;20524;-75
2022/08/16 10:52:25;;;;;;;0.30;0.30;;;;;;;26.16;56.89;99725.56;4993395;28;20204;-75
2022/08/16 10:54:50;;;;;;;1.97;0.93;;;;;;;26.30;56.99;99730.03;4993225;28;20193;-75
2022/08/16 10:57:16;;;;;;;0.20;0.20;;;;;;;26.32;55.82;99725.56;4992240;28;20312;-75
2022/08/16 10:59:41;;;;;;;0.30;0.30;;;;;;;26.36;54.25;99731.16;4988775;28;20185;-76
2022/08/16 11:02:10;;;;;;;0.77;0.70;;;;;;;26.45;53.86;99736.91;4990134;28;20196;-75
2022/08/16 11:04:36;;;;;;;1.97;1.37;;;;;;;26.52;54.27;99727.56;4992401;28;20174;-75
2022/08/16 11:07:03;;;;;;;0.00;0.00;;;;;;;26.49;54.39;99723.63;4990324;28;20218;-76
2022/08/16 11:09:29;;;;;;;0.00;0.00;;;;;;;26.63;54.90;99722.50;4991855;28;20178;-75
2022/08/16 11:11:55;;;;;;;0.10;0.10;;;;;;;26.71;54.00;99723.09;4992266;28;20232;-75
2022/08/16 11:14:20;;;;;;;0.57;0.57;;;;;;;26.77;54.67;99729.75;4992311;28;20185;-75
2022/08/16 11:16:45;;;;;;;1.40;1.20;;;;;;;26.66;53.59;99739.22;4991052;28;20263;-74
2022/08/16 11:19:11;;;;;;;0.20;0.20;;;;;;;26.71;54.93;99737.88;4991452;28;20177;-75
2022/08/16 11:21:36;;;;;;;0.07;0.07;;;;;;;26.85;53.78;99739.53;4992413;28;20491;-75
2022/08/16 11:24:03;;;;;;;0.67;0.20;;;;;;;27.02;54.51;99732.72;4992024;28;20181;-75
2022/08/16 11:26:29;;;;;;;1.30;1.20;;;;;;;27.11;52.61;99729.28;4991905;28;20184;-75
2022/08/16 11:28:56;;;;;;;0.50;0.50;;;;;;;27.08;51.30;99738.59;4989792;28;20231;-75